Time;durP1;ratioP1;P1;durP2;ratioP2;P2;SDS_P1;SDS_P2;PMS_P1;PMS_P2;Temp;Humidity;BMP_temperature;BMP_pressure;BME280_temperature;BME280_humidity;BME280_pressure;Samples;Min_cycle;Max_cycle;Signal;HPM_P1;HPM_P2
2022/06/16 00:00:43;;;;;;;12.25;4.50;;;;;;;17.42;100.00;94820.41;4958579;28;20031;-90
2022/06/16 00:03:09;;;;;;;8.13;4.05;;;;;;;17.39;100.00;94819.13;4961396;28;20118;-90
2022/06/16 00:05:37;;;;;;;11.38;4.75;;;;;;;17.37;100.00;94808.84;4959827;29;20396;-91
2022/06/16 00:08:03;;;;;;;12.50;4.50;;;;;;;17.49;100.00;94807.53;4959881;29;20023;-90
2022/06/16 00:10:29;;;;;;;12.05;4.20;;;;;;;17.54;100.00;94802.13;4960008;29;20038;-90
2022/06/16 00:12:54;;;;;;;16.73;4.43;;;;;;;17.53;100.00;94808.50;4959813;29;20027;-90
2022/06/16 00:15:22;;;;;;;8.38;4.45;;;;;;;17.57;100.00;94798.06;4959796;29;20027;-90
2022/06/16 00:17:48;;;;;;;15.05;5.00;;;;;;;17.69;100.00;94803.63;4959918;28;20027;-90
2022/06/16 00:20:14;;;;;;;15.35;5.32;;;;;;;17.65;100.00;94798.16;4959683;29;20086;-90
2022/06/16 00:22:39;;;;;;;14.55;4.93;;;;;;;18.24;100.00;94796.47;4959651;29;20043;-90
2022/06/16 00:25:06;;;;;;;19.52;5.10;;;;;;;18.39;100.00;94792.63;4959520;29;20034;-91
2022/06/16 00:27:31;;;;;;;22.30;5.50;;;;;;;18.50;100.00;94793.91;4960928;28;20027;-90
2022/06/16 00:29:58;;;;;;;10.23;5.47;;;;;;;18.75;100.00;94788.22;4959438;29;20345;-90
2022/06/16 00:32:23;;;;;;;13.20;5.82;;;;;;;18.90;100.00;94779.03;4959471;29;20341;-89
2022/06/16 00:34:49;;;;;;;9.82;4.90;;;;;;;18.55;100.00;94773.66;4960012;29;20042;-91
2022/06/16 00:37:15;;;;;;;11.73;5.38;;;;;;;18.42;100.00;94776.09;4959409;29;20118;-90
2022/06/16 00:39:40;;;;;;;16.38;5.40;;;;;;;18.16;100.00;94776.00;4959153;29;20031;-91
2022/06/16 00:42:08;;;;;;;16.30;5.28;;;;;;;17.97;100.00;94782.25;4960442;28;20030;-90
2022/06/16 00:44:33;;;;;;;19.38;5.53;;;;;;;18.00;100.00;94779.00;4959557;29;20027;-89
2022/06/16 00:47:00;;;;;;;15.70;5.55;;;;;;;17.66;100.00;94775.88;4960380;28;20050;-89
2022/06/16 00:49:26;;;;;;;15.93;5.85;;;;;;;17.70;100.00;94769.97;4959371;29;20023;-90
2022/06/16 00:51:57;;;;;;;16.38;5.93;;;;;;;17.71;100.00;94769.63;4959033;29;20045;-90
2022/06/16 00:54:36;;;;;;;14.90;5.75;;;;;;;17.75;100.00;94767.19;4959075;29;20028;-90
2022/06/16 00:57:05;;;;;;;13.45;5.85;;;;;;;18.25;100.00;94776.03;4959118;29;20027;-89
2022/06/16 00:59:31;;;;;;;12.32;5.40;;;;;;;18.83;100.00;94784.78;4959225;28;20063;-91
2022/06/16 01:01:57;;;;;;;12.27;5.60;;;;;;;18.99;100.00;94779.84;4959187;29;20090;-91
2022/06/16 01:07:12;;;;;;;11.50;5.03;;;;;;;19.22;100.00;94782.34;4959389;29;20041;-90
2022/06/16 01:09:39;;;;;;;14.65;5.43;;;;;;;19.35;100.00;94767.38;4958589;29;20389;-90
2022/06/16 01:15:27;;;;;;;15.73;5.47;;;;;;;18.16;100.00;94768.06;4959843;29;20037;-90
2022/06/16 01:18:07;;;;;;;10.02;5.47;;;;;;;18.67;100.00;94775.69;4958958;29;20455;-90
2022/06/16 01:20:55;;;;;;;15.10;4.80;;;;;;;18.97;100.00;94776.72;4959560;28;20063;-90
2022/06/16 01:23:50;;;;;;;15.55;5.25;;;;;;;19.21;100.00;94759.56;4959633;28;20125;-90
2022/06/16 01:26:37;;;;;;;18.10;5.68;;;;;;;19.25;100.00;94754.41;4958659;29;20043;-90
2022/06/16 01:29:29;;;;;;;12.00;5.40;;;;;;;19.05;100.00;94744.09;4958531;29;20445;-90
2022/06/16 01:32:27;;;;;;;16.23;5.10;;;;;;;18.61;100.00;94741.38;4954823;29;20039;-90
2022/06/16 01:35:17;;;;;;;13.00;5.68;;;;;;;18.47;100.00;94730.84;4959482;28;20027;-90
2022/06/16 01:37:55;;;;;;;17.85;5.85;;;;;;;18.23;100.00;94728.59;4958438;29;20027;-89
2022/06/16 01:40:21;;;;;;;14.45;5.90;;;;;;;18.16;100.00;94728.28;4959446;28;20042;-90
2022/06/16 01:43:08;;;;;;;12.45;6.20;;;;;;;18.18;100.00;94734.81;4959651;28;20026;-90
2022/06/16 01:45:55;;;;;;;11.38;5.75;;;;;;;18.25;100.00;94741.56;4958391;29;20038;-90
2022/06/16 01:48:22;;;;;;;17.10;5.20;;;;;;;18.49;100.00;94739.28;4959223;28;20027;-90
2022/06/16 01:50:54;;;;;;;13.45;5.82;;;;;;;18.72;100.00;94738.41;4942152;29;20023;-90
2022/06/16 01:53:34;;;;;;;9.50;5.70;;;;;;;18.99;100.00;94739.22;4958211;29;20449;-90
2022/06/16 01:56:09;;;;;;;15.82;5.25;;;;;;;19.16;100.00;94738.47;4945960;28;20033;-90
2022/06/16 01:58:37;;;;;;;13.98;5.68;;;;;;;19.26;100.00;94738.16;4977059;28;20026;-90
2022/06/16 02:01:07;;;;;;;20.08;5.75;;;;;;;19.36;100.00;94737.06;4976798;28;20026;-90
2022/06/16 02:03:38;;;;;;;12.82;5.90;;;;;;;19.44;100.00;94735.50;4963295;28;20031;-90
2022/06/16 02:06:18;;;;;;;14.50;6.18;;;;;;;19.62;100.00;94729.03;4971165;28;20056;-90
2022/06/16 02:08:47;;;;;;;12.20;5.60;;;;;;;19.76;100.00;94723.56;4997262;28;20053;-90
2022/06/16 02:11:33;;;;;;;21.38;6.10;;;;;;;19.79;100.00;94730.09;4977611;28;20364;-89
2022/06/16 02:13:59;;;;;;;12.68;5.47;;;;;;;19.86;100.00;94726.94;4973983;28;20055;-90
2022/06/16 02:16:28;;;;;;;16.05;5.68;;;;;;;19.89;100.00;94723.69;4958801;28;20038;-90
2022/06/16 02:18:56;;;;;;;17.98;5.38;;;;;;;19.89;100.00;94721.03;4957577;29;20086;-90
2022/06/16 02:21:37;;;;;;;14.02;5.32;;;;;;;19.88;100.00;94709.59;4957587;29;20035;-90
2022/06/16 02:24:05;;;;;;;16.35;4.88;;;;;;;19.64;100.00;94713.56;4956820;28;20023;-90
2022/06/16 02:26:30;;;;;;;11.95;5.47;;;;;;;19.47;100.00;94713.59;4957362;29;20129;-91
2022/06/16 02:28:59;;;;;;;12.73;5.22;;;;;;;19.16;100.00;94702.09;4959606;28;20504;-91
2022/06/16 02:31:36;;;;;;;16.00;5.88;;;;;;;18.74;100.00;94702.50;4960850;28;20428;-90
2022/06/16 02:34:18;;;;;;;11.45;5.35;;;;;;;18.70;100.00;94698.13;4977897;28;20082;-90
2022/06/16 02:37:16;;;;;;;15.60;5.50;;;;;;;18.39;100.00;94707.75;4960772;28;20054;-92
2022/06/16 02:39:41;;;;;;;12.50;5.82;;;;;;;18.06;100.00;94705.44;4972432;28;20042;-90
2022/06/16 02:42:19;;;;;;;21.67;6.38;;;;;;;17.36;100.00;94700.56;4978097;28;20030;-90
2022/06/16 02:45:05;;;;;;;16.35;6.25;;;;;;;17.41;100.00;94694.38;4976613;28;20026;-90
2022/06/16 02:48:01;;;;;;;20.70;6.40;;;;;;;17.38;100.00;94698.38;4960744;28;20184;-90
2022/06/16 02:50:48;;;;;;;21.83;7.32;;;;;;;17.30;100.00;94697.25;4977611;28;20027;-91
2022/06/16 02:53:46;;;;;;;12.45;5.93;;;;;;;17.36;100.00;94689.97;4977724;28;20031;-90
2022/06/16 02:56:40;;;;;;;19.17;6.80;;;;;;;17.46;100.00;94686.28;4961971;28;20539;-90
2022/06/16 02:59:11;;;;;;;17.00;6.78;;;;;;;17.31;100.00;94690.88;4977393;28;20432;-90
2022/06/16 03:01:37;;;;;;;23.13;8.07;;;;;;;17.35;100.00;94689.19;4960639;28;20121;-90
2022/06/16 03:04:05;;;;;;;14.38;7.03;;;;;;;17.45;100.00;94684.72;4976584;28;20397;-91
2022/06/16 03:06:30;;;;;;;10.88;6.53;;;;;;;17.38;100.00;94687.78;4977791;28;20401;-90
2022/06/16 03:08:57;;;;;;;23.13;7.40;;;;;;;17.35;100.00;94694.47;4960448;28;20031;-89
2022/06/16 03:11:23;;;;;;;14.40;7.43;;;;;;;17.15;100.00;94698.41;4960730;28;20085;-90
2022/06/16 03:13:48;;;;;;;18.48;7.20;;;;;;;17.41;100.00;94697.78;4976522;28;20035;-90
2022/06/16 03:16:14;;;;;;;12.63;7.05;;;;;;;17.37;100.00;94694.97;4977800;28;20042;-90
2022/06/16 03:18:41;;;;;;;14.50;7.13;;;;;;;17.39;100.00;94697.31;4976257;28;20049;-91
2022/06/16 03:21:06;;;;;;;21.20;7.60;;;;;;;17.43;100.00;94694.84;4960511;28;20065;-90
2022/06/16 03:23:32;;;;;;;14.63;7.28;;;;;;;17.38;100.00;94706.34;4976611;28;20059;-90
2022/06/16 03:25:57;;;;;;;10.88;7.28;;;;;;;17.36;100.00;94703.22;4976385;28;20034;-90
2022/06/16 03:28:22;;;;;;;16.02;7.82;;;;;;;17.47;100.00;94701.88;4977404;28;20433;-90
2022/06/16 03:30:48;;;;;;;15.93;8.27;;;;;;;17.50;100.00;94705.78;4959869;28;20045;-91
2022/06/16 03:33:14;;;;;;;13.25;7.30;;;;;;;17.47;100.00;94695.78;4976005;28;20027;-90
2022/06/16 03:35:40;;;;;;;11.30;7.32;;;;;;;17.45;100.00;94705.91;4967537;28;20117;-90
2022/06/16 03:40:51;;;;;;;19.55;8.02;;;;;;;17.64;100.00;94706.47;4986249;28;20057;-90
2022/06/16 03:43:16;;;;;;;13.70;8.35;;;;;;;17.86;100.00;94717.34;4980135;28;20066;-90
2022/06/16 03:45:42;;;;;;;20.48;7.22;;;;;;;18.08;100.00;94719.22;4974853;28;20027;-89
2022/06/16 03:48:08;;;;;;;20.05;6.97;;;;;;;18.11;100.00;94709.84;4980897;28;20388;-90
2022/06/16 03:50:34;;;;;;;19.45;8.25;;;;;;;17.99;100.00;94724.41;4984536;28;20405;-91
2022/06/16 03:52:59;;;;;;;18.17;7.00;;;;;;;18.09;100.00;94716.22;4980083;28;20069;-91
2022/06/16 03:55:25;;;;;;;18.33;7.15;;;;;;;18.03;100.00;94717.47;4980671;28;20419;-91
2022/06/16 03:57:51;;;;;;;13.73;6.75;;;;;;;18.07;100.00;94717.63;4963460;28;20033;-90
2022/06/16 04:00:18;;;;;;;18.52;7.45;;;;;;;18.06;100.00;94716.06;4963450;28;20022;-91
2022/06/16 04:02:44;;;;;;;11.35;7.05;;;;;;;18.03;100.00;94716.69;4963616;28;20026;-90
2022/06/16 04:05:09;;;;;;;13.45;7.55;;;;;;;18.13;100.00;94721.72;4979303;28;20034;-91
2022/06/16 04:07:36;;;;;;;14.48;7.55;;;;;;;18.20;100.00;94721.28;4978339;28;20027;-91
2022/06/16 04:10:03;;;;;;;14.98;7.25;;;;;;;18.57;100.00;94721.81;4979124;28;20344;-91
2022/06/16 04:12:29;;;;;;;15.30;6.82;;;;;;;18.59;100.00;94717.00;4979219;28;20031;-91
2022/06/16 04:14:54;;;;;;;16.00;7.43;;;;;;;18.63;100.00;94717.16;4979398;28;20034;-91
2022/06/16 04:17:20;;;;;;;16.02;7.30;;;;;;;18.29;100.00;94714.13;4980492;28;20038;-91
2022/06/16 04:22:29;;;;;;;16.63;7.75;;;;;;;18.13;100.00;94715.63;4979218;28;20093;-90
2022/06/16 04:24:55;;;;;;;15.98;8.52;;;;;;;18.04;100.00;94711.06;4978763;28;20031;-90
2022/06/16 04:27:20;;;;;;;15.05;7.70;;;;;;;18.13;100.00;94708.47;4978973;28;20034;-89
2022/06/16 04:29:46;;;;;;;13.07;7.95;;;;;;;18.34;100.00;94710.53;4979080;28;20035;-89
2022/06/16 04:32:11;;;;;;;14.48;7.70;;;;;;;18.51;100.00;94723.88;4980292;28;20030;-88
2022/06/16 04:34:37;;;;;;;18.27;7.53;;;;;;;18.63;100.00;94725.91;4980245;28;20035;-88
2022/06/16 04:37:03;;;;;;;19.60;7.43;;;;;;;18.77;100.00;94728.41;4978946;28;20038;-88
2022/06/16 04:39:28;;;;;;;19.45;8.27;;;;;;;18.75;100.00;94724.53;4980184;28;20520;-89
2022/06/16 04:41:54;;;;;;;21.25;7.63;;;;;;;18.99;100.00;94729.41;4980058;28;20031;-89
2022/06/16 04:44:19;;;;;;;16.55;7.93;;;;;;;19.24;100.00;94724.41;4978727;28;20486;-89
2022/06/16 04:46:44;;;;;;;15.88;8.25;;;;;;;19.19;100.00;94728.00;4978295;28;20027;-88
2022/06/16 04:49:11;;;;;;;19.92;8.57;;;;;;;19.10;100.00;94729.13;4980030;28;20039;-89
2022/06/16 04:51:39;;;;;;;16.25;7.40;;;;;;;19.20;100.00;94734.88;4979905;28;20047;-89
2022/06/16 04:54:05;;;;;;;12.27;8.30;;;;;;;19.05;100.00;94732.69;4978944;28;20411;-90
2022/06/16 04:56:30;;;;;;;12.18;7.93;;;;;;;19.19;100.00;94728.00;4978580;28;20029;-90
2022/06/16 04:58:56;;;;;;;20.48;7.95;;;;;;;19.27;100.00;94725.66;4978246;28;20318;-89
2022/06/16 05:01:21;;;;;;;20.50;8.27;;;;;;;19.03;100.00;94733.00;4979742;28;20102;-90
2022/06/16 05:03:47;;;;;;;17.38;8.60;;;;;;;18.81;100.00;94728.59;4978726;28;20100;-89
2022/06/16 05:06:12;;;;;;;18.77;7.93;;;;;;;19.05;100.00;94732.69;4978507;28;20084;-90
2022/06/16 05:08:38;;;;;;;15.07;8.20;;;;;;;19.33;100.00;94727.84;4977984;28;20086;-89
2022/06/16 05:11:04;;;;;;;12.02;8.13;;;;;;;19.57;100.00;94731.88;4978774;28;20039;-90
2022/06/16 05:13:29;;;;;;;11.45;7.97;;;;;;;19.71;100.00;94733.56;4978096;28;20061;-90
2022/06/16 05:15:55;;;;;;;13.15;7.63;;;;;;;19.81;100.00;94746.53;4978020;28;20114;-90
2022/06/16 05:18:20;;;;;;;18.92;7.78;;;;;;;19.96;100.00;94744.50;4979060;28;20031;-90
2022/06/16 05:20:48;;;;;;;18.92;7.20;;;;;;;20.12;100.00;94750.84;4977834;28;20027;-90
2022/06/16 05:23:14;;;;;;;13.68;6.75;;;;;;;20.27;100.00;94754.84;4978159;28;20045;-89
2022/06/16 05:25:40;;;;;;;13.10;7.03;;;;;;;20.41;100.00;94756.50;4962137;28;20030;-90
2022/06/16 05:28:07;;;;;;;17.73;7.22;;;;;;;20.05;100.00;94750.53;4977776;28;20038;-90
2022/06/16 05:30:33;;;;;;;13.57;7.90;;;;;;;19.95;100.00;94756.22;4977572;28;20038;-90
2022/06/16 05:32:59;;;;;;;22.38;7.80;;;;;;;19.96;100.00;94757.78;4977656;28;20116;-90
2022/06/16 05:35:25;;;;;;;20.88;8.82;;;;;;;19.89;100.00;94758.25;4977540;28;20432;-89
2022/06/16 05:37:57;;;;;;;20.05;8.65;;;;;;;20.10;100.00;94746.94;4961877;28;20026;-90
2022/06/16 05:40:24;;;;;;;;;;;;;;;20.50;100.00;94751.94;4978958;28;20019;-90
2022/06/16 05:42:49;;;;;;;13.00;6.75;;;;;;;20.77;100.00;94750.66;4989569;28;20027;-89
2022/06/16 05:45:15;;;;;;;10.65;6.53;;;;;;;21.04;100.00;94756.63;4986111;28;20121;-90
2022/06/16 05:47:40;;;;;;;13.68;6.90;;;;;;;21.24;100.00;94756.19;4996806;28;20094;-91
2022/06/16 05:50:07;;;;;;;17.17;6.78;;;;;;;21.26;100.00;94754.75;4997797;28;20082;-90
2022/06/16 05:52:32;;;;;;;11.02;6.47;;;;;;;21.38;100.00;94770.00;4997802;28;20029;-89
2022/06/16 05:54:58;;;;;;;14.40;6.68;;;;;;;21.46;100.00;94760.38;4997035;28;20336;-89
2022/06/16 05:57:23;;;;;;;17.38;7.38;;;;;;;20.86;100.00;94774.59;4998117;28;20030;-89
2022/06/16 05:59:49;;;;;;;19.70;7.28;;;;;;;21.12;100.00;94773.66;4996791;28;20026;-90
2022/06/16 06:02:17;;;;;;;16.15;6.97;;;;;;;21.45;100.00;94782.81;4996564;28;20436;-89
2022/06/16 06:04:43;;;;;;;17.52;6.63;;;;;;;21.69;100.00;94776.06;4996888;28;20030;-90
2022/06/16 06:07:09;;;;;;;12.27;6.60;;;;;;;21.86;100.00;94783.88;4996631;28;20034;-90
2022/06/16 06:18:16;;;;;;;12.02;6.47;;;;;;;22.59;100.00;94799.59;4977257;28;20105;-90
2022/06/16 06:20:42;;;;;;;15.82;7.28;;;;;;;22.51;100.00;94795.13;4978033;28;20019;-89
2022/06/16 06:23:08;;;;;;;13.57;6.85;;;;;;;22.37;100.00;94803.44;4977063;28;20126;-89
2022/06/16 06:25:33;;;;;;;11.80;6.80;;;;;;;22.37;100.00;94798.88;4976841;28;20033;-89
2022/06/16 06:27:59;;;;;;;16.27;6.25;;;;;;;22.52;100.00;94802.03;4977005;28;20057;-89
2022/06/16 06:30:28;;;;;;;17.08;9.55;;;;;;;22.56;100.00;94801.03;4978294;28;20081;-89
2022/06/16 06:32:55;;;;;;;18.83;7.60;;;;;;;22.68;100.00;94802.16;4977061;28;20077;-89
2022/06/16 06:35:20;;;;;;;19.02;7.95;;;;;;;22.60;100.00;94803.81;4977002;28;20029;-89
2022/06/16 06:37:46;;;;;;;13.77;7.75;;;;;;;22.45;100.00;94803.34;4961184;28;20508;-89
2022/06/16 06:40:31;;;;;;;13.90;7.35;;;;;;;22.82;100.00;94804.50;4960354;28;20130;-88
2022/06/16 06:42:57;;;;;;;23.40;7.13;;;;;;;22.98;100.00;94807.25;4976949;28;20026;-90
2022/06/16 06:45:23;;;;;;;14.18;6.28;;;;;;;23.24;100.00;94795.41;4976874;28;20038;-88
2022/06/16 06:47:49;;;;;;;14.73;6.32;;;;;;;23.00;100.00;94800.47;4976894;28;20030;-88
2022/06/16 06:50:20;;;;;;;15.68;6.72;;;;;;;23.01;100.00;94801.22;4960880;28;20053;-89
2022/06/16 06:52:46;;;;;;;21.98;7.82;;;;;;;22.59;100.00;94807.59;4976578;28;20441;-89
2022/06/16 06:55:11;;;;;;;19.70;7.25;;;;;;;22.32;100.00;94815.09;4977947;28;20034;-89
2022/06/16 06:57:37;;;;;;;20.58;7.38;;;;;;;22.20;100.00;94820.41;4960549;28;20344;-88
2022/06/16 07:00:03;;;;;;;11.52;7.25;;;;;;;22.28;100.00;94823.00;4976688;28;20432;-88
2022/06/16 07:02:29;;;;;;;13.35;6.78;;;;;;;22.42;100.00;94821.91;4977198;28;20039;-88
2022/06/16 07:04:54;;;;;;;15.90;7.03;;;;;;;22.97;100.00;94822.50;4961158;28;20448;-89
2022/06/16 07:07:22;;;;;;;15.63;6.57;;;;;;;23.25;100.00;94829.81;4976885;28;20037;-88
2022/06/16 07:09:48;;;;;;;17.42;6.47;;;;;;;23.42;100.00;94825.34;4961112;28;20056;-89
2022/06/16 07:12:14;;;;;;;15.50;6.82;;;;;;;23.68;100.00;94824.94;4964440;28;20038;-89
2022/06/16 07:14:43;;;;;;;12.35;6.55;;;;;;;23.67;100.00;94826.03;4964275;28;20040;-88
2022/06/16 07:17:13;;;;;;;18.67;6.43;;;;;;;24.08;100.00;94822.56;4980404;28;20391;-88
2022/06/16 07:19:39;;;;;;;16.05;6.63;;;;;;;24.26;100.00;94823.03;4980275;28;20026;-89
2022/06/16 07:22:05;;;;;;;14.50;6.07;;;;;;;24.75;100.00;94826.47;4980648;28;20483;-88
2022/06/16 07:24:31;;;;;;;14.88;5.90;;;;;;;25.30;100.00;94820.44;4965026;28;20136;-90
2022/06/16 07:26:59;;;;;;;15.60;6.63;;;;;;;25.03;100.00;94815.63;4960821;29;20043;-88
2022/06/16 07:29:25;;;;;;;13.52;6.00;;;;;;;25.26;100.00;94813.09;4944775;29;20031;-88
2022/06/16 07:31:50;;;;;;;18.42;6.30;;;;;;;24.95;100.00;94803.97;4960919;29;20081;-88
2022/06/16 07:34:15;;;;;;;21.52;6.60;;;;;;;25.72;100.00;94808.25;4962255;28;20043;-89
2022/06/16 07:36:41;;;;;;;20.05;5.85;;;;;;;25.71;100.00;94809.38;4961001;29;20066;-88
2022/06/16 07:39:07;;;;;;;14.05;6.20;;;;;;;25.12;100.00;94807.44;4944856;29;20132;-88
2022/06/16 07:41:36;;;;;;;22.52;6.35;;;;;;;25.21;100.00;94802.63;4960673;29;20047;-88
2022/06/16 07:44:04;;;;;;;14.63;5.65;;;;;;;25.73;100.00;94805.22;4960874;29;20487;-88
2022/06/16 07:46:29;;;;;;;15.50;6.45;;;;;;;24.43;100.00;94800.47;4944809;29;20197;-88
2022/06/16 07:48:55;;;;;;;15.77;7.35;;;;;;;24.09;100.00;94787.41;4960443;29;20062;-87
2022/06/16 07:51:20;;;;;;;10.07;6.97;;;;;;;24.38;100.00;94784.66;4960671;28;20039;-89
2022/06/16 07:53:47;;;;;;;14.95;6.80;;;;;;;23.80;100.00;94781.28;4944637;29;20066;-85
2022/06/16 07:56:13;;;;;;;19.65;7.30;;;;;;;23.57;100.00;94781.84;4960425;29;20055;-86
2022/06/16 07:58:39;;;;;;;15.65;8.25;;;;;;;23.67;100.00;94777.91;4961379;28;20077;-86
2022/06/16 08:01:07;;;;;;;18.48;8.57;;;;;;;24.00;100.00;94784.09;4960133;29;20031;-86
2022/06/16 08:03:33;;;;;;;17.63;7.28;;;;;;;24.04;100.00;94789.59;4960359;29;20055;-86
2022/06/16 08:05:59;;;;;;;10.85;6.63;;;;;;;24.52;100.00;94794.94;4960195;29;20039;-86
2022/06/16 08:08:25;;;;;;;20.73;7.53;;;;;;;24.66;100.00;94797.94;4960254;29;20058;-86
2022/06/16 08:10:52;;;;;;;17.58;7.40;;;;;;;24.16;100.00;94794.06;4959896;28;20078;-86
2022/06/16 08:13:19;;;;;;;11.25;6.57;;;;;;;24.52;100.00;94802.97;4959902;29;20031;-85
2022/06/16 08:15:48;;;;;;;20.05;7.55;;;;;;;24.41;100.00;94794.69;4960016;29;20031;-86
2022/06/16 08:18:16;;;;;;;10.63;7.28;;;;;;;25.16;100.00;94788.72;4962343;29;20114;-86
2022/06/16 08:20:42;;;;;;;9.98;6.40;;;;;;;25.60;100.00;94793.09;4962813;28;20445;-86
2022/06/16 08:23:08;;;;;;;15.10;7.07;;;;;;;26.00;100.00;94794.59;4962368;28;20039;-86
2022/06/16 08:25:34;;;;;;;11.35;7.20;;;;;;;26.29;100.00;94788.97;4961954;29;20066;-86
2022/06/16 08:28:02;;;;;;;16.15;7.95;;;;;;;26.78;100.00;94801.66;4962991;28;20031;-85
2022/06/16 08:30:29;;;;;;;17.20;7.63;;;;;;;26.31;100.00;94798.22;4943955;29;20035;-85
2022/06/16 08:32:54;;;;;;;19.00;8.18;;;;;;;25.89;100.00;94799.00;4943362;29;20081;-85
2022/06/16 08:35:20;;;;;;;13.38;7.13;;;;;;;26.13;100.00;94789.84;4960911;28;20433;-86
2022/06/16 08:37:47;;;;;;;14.48;8.02;;;;;;;26.45;100.00;94794.97;4959717;29;20035;-86
2022/06/16 08:40:13;;;;;;;18.52;7.10;;;;;;;26.31;100.00;94786.69;4959420;28;20027;-86
2022/06/16 08:42:50;;;;;;;20.50;9.23;;;;;;;26.34;100.00;94791.38;4959300;29;20101;-87
2022/06/16 08:45:28;;;;;;;8.73;6.65;;;;;;;26.58;100.00;94784.84;4960390;28;20035;-86
2022/06/16 08:48:00;;;;;;;20.27;8.07;;;;;;;26.11;100.00;94782.16;4959235;29;20122;-86
2022/06/16 08:50:32;;;;;;;14.35;7.30;;;;;;;26.36;100.00;94781.03;4959152;28;20125;-85
2022/06/16 08:53:11;;;;;;;11.55;7.28;;;;;;;25.90;100.00;94779.88;4959467;29;20035;-86
2022/06/16 08:55:52;;;;;;;15.75;7.28;;;;;;;25.77;100.00;94779.22;4943383;29;20098;-86
2022/06/16 08:58:25;;;;;;;22.08;7.55;;;;;;;24.90;100.00;94774.78;4960204;28;20039;-86
2022/06/16 09:00:55;;;;;;;11.10;7.72;;;;;;;24.99;100.00;94763.88;4943083;29;20038;-86
2022/06/16 09:03:29;;;;;;;16.38;7.88;;;;;;;25.39;100.00;94772.72;4958819;29;20038;-85
2022/06/16 09:06:20;;;;;;;20.33;7.93;;;;;;;25.86;100.00;94770.19;4959146;29;20558;-85
2022/06/16 09:10:14;;;;;;;19.23;7.13;;;;;;;26.97;100.00;94762.38;4959890;28;20082;-85
2022/06/16 09:12:43;;;;;;;18.92;8.23;;;;;;;26.81;100.00;94763.28;4959743;28;20090;-86
2022/06/16 09:15:20;;;;;;;17.15;7.90;;;;;;;27.68;100.00;94768.25;4960205;28;20027;-86
2022/06/16 09:18:08;;;;;;;11.73;6.30;;;;;;;27.43;100.00;94766.03;4959807;28;20074;-86
2022/06/16 09:20:49;;;;;;;11.52;6.70;;;;;;;27.55;100.00;94763.13;4959871;28;20031;-86
2022/06/16 09:23:40;;;;;;;13.77;6.90;;;;;;;27.57;100.00;94765.47;4958504;29;20117;-85
2022/06/16 09:26:12;;;;;;;16.83;7.20;;;;;;;27.59;100.00;94768.53;4959659;28;20034;-85
2022/06/16 09:28:44;;;;;;;20.70;7.25;;;;;;;27.26;100.00;94762.75;4959846;28;20035;-86
2022/06/16 09:31:19;;;;;;;13.65;7.50;;;;;;;26.79;100.00;94762.09;4958631;29;20126;-85
2022/06/16 09:33:49;;;;;;;16.55;7.00;;;;;;;26.82;100.00;94754.09;4942395;29;20349;-85
2022/06/16 09:36:26;;;;;;;18.02;9.00;;;;;;;26.67;100.00;94765.78;4958361;29;20026;-86
2022/06/16 09:38:57;;;;;;;17.27;10.68;;;;;;;26.48;100.00;94761.25;4958228;29;20093;-85
2022/06/16 09:44:24;;;;;;;15.30;8.55;;;;;;;26.64;100.00;94759.19;4958444;29;20081;-85
2022/06/16 09:46:55;;;;;;;15.07;9.30;;;;;;;26.90;100.00;94756.91;4958202;29;20034;-85
2022/06/16 09:49:27;;;;;;;14.73;9.48;;;;;;;26.60;100.00;94765.66;4959160;28;20491;-84
2022/06/16 09:51:59;;;;;;;23.55;9.43;;;;;;;26.92;100.00;94758.09;4958134;29;20441;-84
2022/06/16 09:54:33;;;;;;;14.75;10.00;;;;;;;26.48;100.00;94755.88;4964144;28;20451;-86
2022/06/16 09:56:58;;;;;;;18.58;8.82;;;;;;;26.88;100.00;94753.78;4961415;28;20034;-86
2022/06/16 09:59:32;;;;;;;12.93;8.65;;;;;;;26.97;100.00;94748.94;4978350;28;20030;-86
2022/06/16 10:02:02;;;;;;;15.10;8.80;;;;;;;26.91;100.00;94753.09;4977697;28;20440;-86
2022/06/16 10:04:30;;;;;;;17.20;8.20;;;;;;;27.03;100.00;94754.78;4977053;28;20487;-84
2022/06/16 10:07:09;;;;;;;19.30;9.52;;;;;;;27.12;100.00;94749.91;4977331;28;20041;-85
2022/06/16 10:09:49;;;;;;;12.95;7.90;;;;;;;27.22;100.00;94749.25;4978073;28;20035;-85
2022/06/16 10:12:38;;;;;;;15.70;9.20;;;;;;;27.07;100.00;94752.91;4978527;28;20034;-85
2022/06/16 10:15:29;;;;;;;18.40;10.13;;;;;;;27.18;100.00;94755.72;4978171;28;20037;-85
2022/06/16 10:17:58;;;;;;;12.13;8.07;;;;;;;27.22;100.00;94761.94;4978135;28;20026;-87
2022/06/16 10:20:24;;;;;;;20.88;8.90;;;;;;;27.46;100.00;94755.31;4977021;28;20022;-86
2022/06/16 10:22:56;;;;;;;15.93;8.98;;;;;;;27.33;100.00;94749.41;4960955;28;20030;-85
2022/06/16 10:25:30;;;;;;;13.48;8.52;;;;;;;27.25;100.00;94745.06;4960892;28;20035;-85
2022/06/16 10:28:10;;;;;;;13.82;7.88;;;;;;;27.11;100.00;94745.66;4976866;28;20409;-84
2022/06/16 10:30:38;;;;;;;21.05;7.88;;;;;;;27.73;100.00;94749.88;4976795;28;20110;-85
2022/06/16 10:33:20;;;;;;;11.35;6.88;;;;;;;27.78;100.00;94752.22;4976722;28;20089;-85
2022/06/16 10:36:09;;;;;;;12.50;7.90;;;;;;;28.09;100.00;94752.13;4977004;28;20031;-86
2022/06/16 10:38:47;;;;;;;15.73;7.93;;;;;;;28.08;100.00;94745.19;4966497;28;20093;-86
2022/06/16 10:41:23;;;;;;;14.38;7.55;;;;;;;28.25;100.00;94741.13;4976609;28;20132;-85
2022/06/16 10:44:06;;;;;;;13.98;6.47;;;;;;;28.27;98.61;94738.06;4975154;28;20081;-86
2022/06/16 10:46:34;;;;;;;11.07;6.68;;;;;;;27.70;91.58;94749.81;4986525;28;20030;-86
2022/06/16 10:49:04;;;;;;;11.65;6.32;;;;;;;28.03;95.58;94750.91;4990791;28;20448;-86
2022/06/16 10:51:30;;;;;;;11.85;6.90;;;;;;;28.12;100.00;94748.69;4979763;28;20034;-86
2022/06/16 10:54:21;;;;;;;12.77;6.82;;;;;;;27.90;100.00;94750.41;4995836;28;20132;-86
2022/06/16 10:56:47;;;;;;;13.15;6.88;;;;;;;28.16;100.00;94744.09;4996889;28;20026;-85
2022/06/16 10:59:22;;;;;;;13.20;6.95;;;;;;;28.17;95.45;94747.59;4977622;28;20374;-85
2022/06/16 11:01:53;;;;;;;15.43;7.38;;;;;;;28.44;100.00;94752.81;4960685;28;20077;-86
2022/06/16 11:04:22;;;;;;;9.10;6.25;;;;;;;28.65;100.00;94752.97;4965685;28;20031;-84
2022/06/16 11:06:57;;;;;;;12.02;6.68;;;;;;;28.61;100.00;94757.56;4965588;28;20069;-84
2022/06/16 11:09:31;;;;;;;16.48;7.25;;;;;;;28.18;100.00;94760.69;4960296;28;20441;-86
2022/06/16 11:12:06;;;;;;;9.40;6.43;;;;;;;27.91;100.00;94752.75;4960379;28;20031;-84
2022/06/16 11:15:06;;;;;;;10.77;6.97;;;;;;;27.94;100.00;94751.22;4976810;28;20038;-88
2022/06/16 11:17:40;;;;;;;8.85;6.45;;;;;;;28.32;100.00;94751.97;4962616;28;20034;-88
2022/06/16 11:20:17;;;;;;;16.48;6.93;;;;;;;27.99;100.00;94753.59;4961417;28;20037;-87
2022/06/16 11:22:46;;;;;;;12.82;6.30;;;;;;;28.22;100.00;94749.94;4976456;28;20118;-87
2022/06/16 11:25:18;;;;;;;11.32;6.78;;;;;;;28.59;92.29;94748.28;4960310;28;20031;-88
2022/06/16 11:28:10;;;;;;;14.68;6.80;;;;;;;28.74;100.00;94752.63;4977419;28;20314;-87
2022/06/16 11:31:00;;;;;;;12.73;6.53;;;;;;;28.99;99.91;94740.50;4977589;28;20039;-88
2022/06/16 11:36:45;;;;;;;;;;;;;;;28.67;100.00;94744.50;4977100;28;20066;-88
2022/06/16 11:39:21;;;;;;;14.18;7.25;;;;;;;29.05;100.00;94741.66;4954161;28;19965;-88
2022/06/16 11:41:52;;;;;;;12.20;7.10;;;;;;;29.24;100.00;94740.59;4976431;28;20388;-89
2022/06/16 11:44:35;;;;;;;11.07;6.50;;;;;;;29.15;100.00;94738.25;4960789;28;20122;-91
2022/06/16 11:47:20;;;;;;;11.00;6.22;;;;;;;29.38;98.12;94733.72;4976672;28;20466;-91
2022/06/16 11:50:15;;;;;;;12.43;6.53;;;;;;;29.44;100.00;94733.00;4976008;28;20026;-91
2022/06/16 11:53:13;;;;;;;11.15;6.38;;;;;;;29.72;98.20;94734.22;4976101;28;20138;-91
2022/06/16 11:55:49;;;;;;;14.75;6.63;;;;;;;29.29;100.00;94725.97;4934230;28;20085;-90
2022/06/16 11:58:47;;;;;;;9.55;5.95;;;;;;;30.05;92.67;94737.00;4979509;28;20353;-90
2022/06/16 12:01:40;;;;;;;9.48;6.32;;;;;;;29.23;80.86;94728.28;4972532;28;20432;-90
2022/06/16 12:04:16;;;;;;;13.65;6.22;;;;;;;29.72;90.09;94730.75;4980672;28;20104;-90